Terminal Aerodrome Forecast
Issued by NWS

Home | Current Version | Previous Version | Graphics & Text | Print | Product List | Glossary On
Versions: 1 2 3 4 5 6 7 8 9 10 11 12 13 14
000
FTUS41 KCLE 082300
TAFFDY
TAF
KFDY 082338Z 0900/0924 28012KT P6SM BKN200
     FM090900 25005KT 3SM BR SCT030
     FM091500 30010KT P6SM BKN040=

USA.gov is the U.S. government's official web portal to all federal, state and local government web resources and services.